sensor_id;sensor_type;location;lat;lon;timestamp;P1;durP1;ratioP1;P2;durP2;ratioP2
11394;SDS011;5753;54.402;10.220;2023-02-13T00:02:18;8.40;;;5.13;;
11394;SDS011;5753;54.402;10.220;2023-02-13T00:04:44;7.80;;;6.57;;
11394;SDS011;5753;54.402;10.220;2023-02-13T00:07:11;5.00;;;4.32;;
11394;SDS011;5753;54.402;10.220;2023-02-13T00:09:40;7.72;;;6.30;;
11394;SDS011;5753;54.402;10.220;2023-02-13T00:12:06;5.35;;;4.63;;
11394;SDS011;5753;54.402;10.220;2023-02-13T00:14:33;8.07;;;4.57;;
11394;SDS011;5753;54.402;10.220;2023-02-13T00:17:00;10.25;;;3.95;;
11394;SDS011;5753;54.402;10.220;2023-02-13T00:19:27;8.90;;;6.10;;
11394;SDS011;5753;54.402;10.220;2023-02-13T00:21:53;10.57;;;7.15;;
11394;SDS011;5753;54.402;10.220;2023-02-13T00:24:20;7.07;;;5.57;;
11394;SDS011;5753;54.402;10.220;2023-02-13T00:26:46;11.55;;;7.05;;
11394;SDS011;5753;54.402;10.220;2023-02-13T00:29:12;10.15;;;6.78;;
11394;SDS011;5753;54.402;10.220;2023-02-13T00:31:38;8.70;;;6.05;;
11394;SDS011;5753;54.402;10.220;2023-02-13T00:34:04;7.32;;;4.85;;
11394;SDS011;5753;54.402;10.220;2023-02-13T00:36:31;8.43;;;6.88;;
11394;SDS011;5753;54.402;10.220;2023-02-13T00:38:57;6.30;;;5.25;;
11394;SDS011;5753;54.402;10.220;2023-02-13T00:41:23;10.60;;;4.90;;
11394;SDS011;5753;54.402;10.220;2023-02-13T00:43:50;13.00;;;8.07;;
11394;SDS011;5753;54.402;10.220;2023-02-13T00:46:16;8.13;;;5.20;;
11394;SDS011;5753;54.402;10.220;2023-02-13T00:48:43;8.02;;;5.28;;
11394;SDS011;5753;54.402;10.220;2023-02-13T00:51:09;9.73;;;5.40;;
11394;SDS011;5753;54.402;10.220;2023-02-13T00:53:36;8.27;;;5.88;;
11394;SDS011;5753;54.402;10.220;2023-02-13T00:56:03;7.35;;;6.28;;
11394;SDS011;5753;54.402;10.220;2023-02-13T00:58:30;9.13;;;5.35;;
11394;SDS011;5753;54.402;10.220;2023-02-13T01:00:57;7.55;;;5.68;;
11394;SDS011;5753;54.402;10.220;2023-02-13T01:03:23;6.88;;;4.35;;
11394;SDS011;5753;54.402;10.220;2023-02-13T01:05:50;12.75;;;7.63;;
11394;SDS011;5753;54.402;10.220;2023-02-13T01:08:17;6.63;;;5.68;;
11394;SDS011;5753;54.402;10.220;2023-02-13T01:10:44;11.35;;;6.63;;
11394;SDS011;5753;54.402;10.220;2023-02-13T01:13:12;9.88;;;6.45;;
11394;SDS011;5753;54.402;10.220;2023-02-13T01:15:40;10.20;;;7.63;;
11394;SDS011;5753;54.402;10.220;2023-02-13T01:18:06;11.18;;;5.53;;
11394;SDS011;5753;54.402;10.220;2023-02-13T01:20:33;10.70;;;7.07;;
11394;SDS011;5753;54.402;10.220;2023-02-13T01:23:00;17.23;;;6.53;;
11394;SDS011;5753;54.402;10.220;2023-02-13T01:25:26;14.65;;;5.97;;
11394;SDS011;5753;54.402;10.220;2023-02-13T01:27:52;9.35;;;6.25;;
11394;SDS011;5753;54.402;10.220;2023-02-13T01:30:18;10.10;;;5.72;;
11394;SDS011;5753;54.402;10.220;2023-02-13T01:32:45;10.68;;;7.03;;
11394;SDS011;5753;54.402;10.220;2023-02-13T01:35:12;9.93;;;6.00;;
11394;SDS011;5753;54.402;10.220;2023-02-13T01:37:39;9.65;;;5.80;;
11394;SDS011;5753;54.402;10.220;2023-02-13T01:40:07;12.27;;;8.63;;
11394;SDS011;5753;54.402;10.220;2023-02-13T01:42:36;10.38;;;6.32;;
11394;SDS011;5753;54.402;10.220;2023-02-13T01:45:17;11.27;;;5.10;;
11394;SDS011;5753;54.402;10.220;2023-02-13T01:47:45;9.38;;;5.53;;
11394;SDS011;5753;54.402;10.220;2023-02-13T01:53:01;8.75;;;6.20;;
11394;SDS011;5753;54.402;10.220;2023-02-13T01:55:30;19.50;;;6.93;;
11394;SDS011;5753;54.402;10.220;2023-02-13T01:58:07;10.30;;;6.28;;
11394;SDS011;5753;54.402;10.220;2023-02-13T02:00:37;9.82;;;6.13;;
11394;SDS011;5753;54.402;10.220;2023-02-13T02:03:06;11.98;;;7.38;;
11394;SDS011;5753;54.402;10.220;2023-02-13T02:05:37;9.27;;;5.22;;
11394;SDS011;5753;54.402;10.220;2023-02-13T02:08:05;8.40;;;6.07;;
11394;SDS011;5753;54.402;10.220;2023-02-13T02:10:34;11.40;;;6.78;;
11394;SDS011;5753;54.402;10.220;2023-02-13T02:15:28;7.45;;;6.32;;
11394;SDS011;5753;54.402;10.220;2023-02-13T02:17:55;8.95;;;6.90;;
11394;SDS011;5753;54.402;10.220;2023-02-13T02:23:11;9.50;;;5.07;;
11394;SDS011;5753;54.402;10.220;2023-02-13T02:34:49;8.15;;;4.05;;
11394;SDS011;5753;54.402;10.220;2023-02-13T02:40:10;9.73;;;5.20;;
11394;SDS011;5753;54.402;10.220;2023-02-13T02:45:25;6.70;;;5.05;;
11394;SDS011;5753;54.402;10.220;2023-02-13T02:47:59;7.40;;;5.53;;
11394;SDS011;5753;54.402;10.220;2023-02-13T02:50:58;9.10;;;4.97;;
11394;SDS011;5753;54.402;10.220;2023-02-13T02:56:18;4.95;;;4.00;;
11394;SDS011;5753;54.402;10.220;2023-02-13T02:58:56;9.40;;;4.75;;
11394;SDS011;5753;54.402;10.220;2023-02-13T03:01:49;8.73;;;5.97;;
11394;SDS011;5753;54.402;10.220;2023-02-13T03:04:40;9.65;;;6.72;;
11394;SDS011;5753;54.402;10.220;2023-02-13T03:07:28;11.10;;;6.90;;
11394;SDS011;5753;54.402;10.220;2023-02-13T03:09:56;11.88;;;6.07;;
11394;SDS011;5753;54.402;10.220;2023-02-13T03:12:53;11.55;;;7.70;;
11394;SDS011;5753;54.402;10.220;2023-02-13T03:15:43;7.72;;;5.28;;
11394;SDS011;5753;54.402;10.220;2023-02-13T03:18:30;7.10;;;6.20;;
11394;SDS011;5753;54.402;10.220;2023-02-13T03:24:23;8.60;;;6.45;;
11394;SDS011;5753;54.402;10.220;2023-02-13T03:32:28;10.90;;;6.95;;
11394;SDS011;5753;54.402;10.220;2023-02-13T03:38:38;9.48;;;6.03;;
11394;SDS011;5753;54.402;10.220;2023-02-13T03:41:39;10.52;;;6.93;;
11394;SDS011;5753;54.402;10.220;2023-02-13T03:44:15;12.95;;;6.35;;
11394;SDS011;5753;54.402;10.220;2023-02-13T03:47:01;12.05;;;8.40;;
11394;SDS011;5753;54.402;10.220;2023-02-13T03:52:25;11.20;;;6.72;;
11394;SDS011;5753;54.402;10.220;2023-02-13T03:54:58;8.82;;;7.53;;
11394;SDS011;5753;54.402;10.220;2023-02-13T03:57:44;8.60;;;5.78;;
11394;SDS011;5753;54.402;10.220;2023-02-13T04:00:42;9.50;;;6.32;;
11394;SDS011;5753;54.402;10.220;2023-02-13T04:03:14;9.82;;;6.57;;
11394;SDS011;5753;54.402;10.220;2023-02-13T04:05:53;9.63;;;7.05;;
11394;SDS011;5753;54.402;10.220;2023-02-13T04:08:59;16.08;;;7.82;;
11394;SDS011;5753;54.402;10.220;2023-02-13T04:11:39;8.43;;;6.85;;
11394;SDS011;5753;54.402;10.220;2023-02-13T04:14:10;18.60;;;6.53;;
11394;SDS011;5753;54.402;10.220;2023-02-13T04:16:46;13.63;;;6.88;;
11394;SDS011;5753;54.402;10.220;2023-02-13T04:19:22;7.93;;;6.53;;
11394;SDS011;5753;54.402;10.220;2023-02-13T04:21:54;11.00;;;8.20;;
11394;SDS011;5753;54.402;10.220;2023-02-13T04:24:23;8.50;;;5.53;;
11394;SDS011;5753;54.402;10.220;2023-02-13T04:26:49;12.68;;;7.95;;
11394;SDS011;5753;54.402;10.220;2023-02-13T04:29:16;13.25;;;6.40;;
11394;SDS011;5753;54.402;10.220;2023-02-13T04:31:42;14.13;;;7.00;;
11394;SDS011;5753;54.402;10.220;2023-02-13T04:34:09;14.38;;;8.00;;
11394;SDS011;5753;54.402;10.220;2023-02-13T04:36:35;10.63;;;8.25;;
11394;SDS011;5753;54.402;10.220;2023-02-13T04:39:01;18.13;;;9.07;;
11394;SDS011;5753;54.402;10.220;2023-02-13T04:41:27;12.52;;;7.68;;
11394;SDS011;5753;54.402;10.220;2023-02-13T04:43:53;14.57;;;7.07;;
11394;SDS011;5753;54.402;10.220;2023-02-13T04:46:19;10.15;;;6.78;;
11394;SDS011;5753;54.402;10.220;2023-02-13T04:48:46;12.13;;;8.73;;
11394;SDS011;5753;54.402;10.220;2023-02-13T04:51:12;17.33;;;7.07;;
11394;SDS011;5753;54.402;10.220;2023-02-13T04:53:38;12.48;;;8.00;;
11394;SDS011;5753;54.402;10.220;2023-02-13T04:56:04;12.60;;;7.80;;
11394;SDS011;5753;54.402;10.220;2023-02-13T04:58:31;13.73;;;7.22;;
11394;SDS011;5753;54.402;10.220;2023-02-13T05:00:57;14.13;;;8.10;;
11394;SDS011;5753;54.402;10.220;2023-02-13T05:03:23;13.88;;;8.30;;
11394;SDS011;5753;54.402;10.220;2023-02-13T05:05:49;12.00;;;8.98;;
11394;SDS011;5753;54.402;10.220;2023-02-13T05:08:15;14.05;;;9.52;;
11394;SDS011;5753;54.402;10.220;2023-02-13T05:10:42;22.08;;;10.50;;
11394;SDS011;5753;54.402;10.220;2023-02-13T05:13:08;17.85;;;9.05;;
11394;SDS011;5753;54.402;10.220;2023-02-13T05:15:34;14.63;;;9.15;;
11394;SDS011;5753;54.402;10.220;2023-02-13T05:18:00;12.32;;;6.90;;
11394;SDS011;5753;54.402;10.220;2023-02-13T05:20:26;14.52;;;7.30;;
11394;SDS011;5753;54.402;10.220;2023-02-13T05:22:53;12.70;;;9.27;;
11394;SDS011;5753;54.402;10.220;2023-02-13T05:25:38;13.88;;;8.57;;
11394;SDS011;5753;54.402;10.220;2023-02-13T05:28:06;15.75;;;9.07;;
11394;SDS011;5753;54.402;10.220;2023-02-13T05:30:51;15.02;;;10.48;;
11394;SDS011;5753;54.402;10.220;2023-02-13T05:33:17;17.10;;;9.88;;
11394;SDS011;5753;54.402;10.220;2023-02-13T05:35:43;14.93;;;9.98;;
11394;SDS011;5753;54.402;10.220;2023-02-13T05:38:10;14.88;;;10.27;;
11394;SDS011;5753;54.402;10.220;2023-02-13T05:40:36;17.42;;;9.93;;
11394;SDS011;5753;54.402;10.220;2023-02-13T05:43:02;14.18;;;9.45;;
11394;SDS011;5753;54.402;10.220;2023-02-13T05:45:28;18.60;;;9.70;;
11394;SDS011;5753;54.402;10.220;2023-02-13T05:47:54;16.75;;;8.48;;
11394;SDS011;5753;54.402;10.220;2023-02-13T05:50:20;19.50;;;10.75;;
11394;SDS011;5753;54.402;10.220;2023-02-13T05:52:47;12.80;;;10.82;;
11394;SDS011;5753;54.402;10.220;2023-02-13T05:55:13;21.92;;;11.30;;
11394;SDS011;5753;54.402;10.220;2023-02-13T05:57:39;20.10;;;11.27;;
11394;SDS011;5753;54.402;10.220;2023-02-13T06:00:05;15.32;;;10.07;;
11394;SDS011;5753;54.402;10.220;2023-02-13T06:02:32;16.55;;;9.82;;
11394;SDS011;5753;54.402;10.220;2023-02-13T06:04:58;15.68;;;9.40;;
11394;SDS011;5753;54.402;10.220;2023-02-13T06:07:24;18.33;;;10.18;;
11394;SDS011;5753;54.402;10.220;2023-02-13T06:09:51;14.73;;;9.52;;
11394;SDS011;5753;54.402;10.220;2023-02-13T06:12:17;14.52;;;10.23;;
11394;SDS011;5753;54.402;10.220;2023-02-13T06:14:43;21.38;;;9.75;;
11394;SDS011;5753;54.402;10.220;2023-02-13T06:17:09;18.23;;;10.68;;
11394;SDS011;5753;54.402;10.220;2023-02-13T06:19:35;18.80;;;12.90;;
11394;SDS011;5753;54.402;10.220;2023-02-13T06:22:03;20.58;;;12.25;;
11394;SDS011;5753;54.402;10.220;2023-02-13T06:24:29;22.52;;;13.18;;
11394;SDS011;5753;54.402;10.220;2023-02-13T06:26:55;13.57;;;9.00;;
11394;SDS011;5753;54.402;10.220;2023-02-13T06:29:22;18.23;;;11.48;;
11394;SDS011;5753;54.402;10.220;2023-02-13T06:31:48;15.98;;;10.13;;
11394;SDS011;5753;54.402;10.220;2023-02-13T06:34:15;16.67;;;12.57;;
11394;SDS011;5753;54.402;10.220;2023-02-13T06:36:41;21.42;;;10.45;;
11394;SDS011;5753;54.402;10.220;2023-02-13T06:39:08;29.30;;;13.35;;
11394;SDS011;5753;54.402;10.220;2023-02-13T06:41:35;21.58;;;10.68;;
11394;SDS011;5753;54.402;10.220;2023-02-13T06:44:01;21.17;;;11.85;;
11394;SDS011;5753;54.402;10.220;2023-02-13T06:46:27;16.15;;;9.38;;
11394;SDS011;5753;54.402;10.220;2023-02-13T06:48:53;18.25;;;10.95;;
11394;SDS011;5753;54.402;10.220;2023-02-13T06:51:19;17.50;;;10.02;;
11394;SDS011;5753;54.402;10.220;2023-02-13T06:53:46;21.00;;;10.93;;
11394;SDS011;5753;54.402;10.220;2023-02-13T06:56:12;17.58;;;11.00;;
11394;SDS011;5753;54.402;10.220;2023-02-13T06:58:38;19.30;;;11.48;;
11394;SDS011;5753;54.402;10.220;2023-02-13T07:01:04;16.02;;;11.00;;
11394;SDS011;5753;54.402;10.220;2023-02-13T07:03:31;13.48;;;8.65;;
11394;SDS011;5753;54.402;10.220;2023-02-13T07:05:57;18.90;;;11.65;;
11394;SDS011;5753;54.402;10.220;2023-02-13T07:08:23;12.38;;;8.23;;
11394;SDS011;5753;54.402;10.220;2023-02-13T07:10:49;16.45;;;9.80;;
11394;SDS011;5753;54.402;10.220;2023-02-13T07:13:16;13.68;;;10.32;;
11394;SDS011;5753;54.402;10.220;2023-02-13T07:15:42;21.52;;;11.02;;
11394;SDS011;5753;54.402;10.220;2023-02-13T07:18:08;14.18;;;10.30;;
11394;SDS011;5753;54.402;10.220;2023-02-13T07:20:34;15.85;;;11.65;;
11394;SDS011;5753;54.402;10.220;2023-02-13T07:23:02;16.73;;;11.50;;
11394;SDS011;5753;54.402;10.220;2023-02-13T07:25:30;15.30;;;9.20;;
11394;SDS011;5753;54.402;10.220;2023-02-13T07:28:00;14.55;;;9.05;;
11394;SDS011;5753;54.402;10.220;2023-02-13T07:30:31;21.42;;;10.25;;
11394;SDS011;5753;54.402;10.220;2023-02-13T07:32:59;16.00;;;10.82;;
11394;SDS011;5753;54.402;10.220;2023-02-13T07:35:27;15.43;;;8.45;;
11394;SDS011;5753;54.402;10.220;2023-02-13T07:37:53;14.13;;;9.32;;
11394;SDS011;5753;54.402;10.220;2023-02-13T07:40:19;17.90;;;9.23;;
11394;SDS011;5753;54.402;10.220;2023-02-13T07:42:46;20.50;;;11.80;;
11394;SDS011;5753;54.402;10.220;2023-02-13T07:45:12;15.55;;;8.85;;
11394;SDS011;5753;54.402;10.220;2023-02-13T07:47:40;15.60;;;9.10;;
11394;SDS011;5753;54.402;10.220;2023-02-13T07:50:07;17.00;;;9.02;;
11394;SDS011;5753;54.402;10.220;2023-02-13T07:52:33;19.75;;;10.02;;
11394;SDS011;5753;54.402;10.220;2023-02-13T07:55:01;14.73;;;9.35;;
11394;SDS011;5753;54.402;10.220;2023-02-13T07:57:29;17.75;;;8.90;;
11394;SDS011;5753;54.402;10.220;2023-02-13T07:59:56;14.48;;;9.13;;
11394;SDS011;5753;54.402;10.220;2023-02-13T08:02:22;14.05;;;8.50;;
11394;SDS011;5753;54.402;10.220;2023-02-13T08:04:48;13.93;;;8.07;;
11394;SDS011;5753;54.402;10.220;2023-02-13T08:07:15;16.35;;;8.52;;
11394;SDS011;5753;54.402;10.220;2023-02-13T08:09:45;15.77;;;9.88;;
11394;SDS011;5753;54.402;10.220;2023-02-13T08:12:30;12.25;;;7.72;;
11394;SDS011;5753;54.402;10.220;2023-02-13T08:14:56;13.70;;;9.60;;
11394;SDS011;5753;54.402;10.220;2023-02-13T08:17:23;14.45;;;7.70;;
11394;SDS011;5753;54.402;10.220;2023-02-13T08:19:49;14.32;;;9.43;;
11394;SDS011;5753;54.402;10.220;2023-02-13T08:22:15;16.35;;;11.63;;
11394;SDS011;5753;54.402;10.220;2023-02-13T08:24:41;11.32;;;8.65;;
11394;SDS011;5753;54.402;10.220;2023-02-13T08:27:10;11.85;;;6.90;;
11394;SDS011;5753;54.402;10.220;2023-02-13T08:29:37;8.93;;;5.78;;
11394;SDS011;5753;54.402;10.220;2023-02-13T08:32:03;9.43;;;7.00;;
11394;SDS011;5753;54.402;10.220;2023-02-13T08:34:30;7.47;;;6.10;;
11394;SDS011;5753;54.402;10.220;2023-02-13T08:36:56;10.75;;;6.25;;
11394;SDS011;5753;54.402;10.220;2023-02-13T08:39:22;10.13;;;8.20;;
11394;SDS011;5753;54.402;10.220;2023-02-13T08:41:48;12.30;;;6.75;;
11394;SDS011;5753;54.402;10.220;2023-02-13T08:44:14;10.40;;;7.57;;
11394;SDS011;5753;54.402;10.220;2023-02-13T08:46:40;11.27;;;6.95;;
11394;SDS011;5753;54.402;10.220;2023-02-13T08:49:07;12.20;;;8.18;;
11394;SDS011;5753;54.402;10.220;2023-02-13T08:51:33;9.77;;;6.50;;
11394;SDS011;5753;54.402;10.220;2023-02-13T08:53:59;9.68;;;7.43;;
11394;SDS011;5753;54.402;10.220;2023-02-13T08:56:25;11.05;;;7.72;;
11394;SDS011;5753;54.402;10.220;2023-02-13T08:58:51;13.13;;;8.30;;
11394;SDS011;5753;54.402;10.220;2023-02-13T09:01:18;6.95;;;5.57;;
11394;SDS011;5753;54.402;10.220;2023-02-13T09:03:45;10.57;;;5.38;;
11394;SDS011;5753;54.402;10.220;2023-02-13T09:06:12;6.38;;;4.13;;
11394;SDS011;5753;54.402;10.220;2023-02-13T09:08:38;9.70;;;5.70;;
11394;SDS011;5753;54.402;10.220;2023-02-13T09:11:04;10.48;;;6.13;;
11394;SDS011;5753;54.402;10.220;2023-02-13T09:13:31;10.55;;;5.93;;
11394;SDS011;5753;54.402;10.220;2023-02-13T09:15:59;11.55;;;5.88;;
11394;SDS011;5753;54.402;10.220;2023-02-13T09:18:26;11.77;;;7.20;;
11394;SDS011;5753;54.402;10.220;2023-02-13T09:21:00;11.52;;;6.10;;
11394;SDS011;5753;54.402;10.220;2023-02-13T09:23:31;9.50;;;5.80;;
11394;SDS011;5753;54.402;10.220;2023-02-13T09:26:03;9.10;;;7.15;;
11394;SDS011;5753;54.402;10.220;2023-02-13T09:28:32;12.13;;;5.73;;
11394;SDS011;5753;54.402;10.220;2023-02-13T09:30:59;6.90;;;5.07;;
11394;SDS011;5753;54.402;10.220;2023-02-13T09:33:35;8.70;;;6.72;;
11394;SDS011;5753;54.402;10.220;2023-02-13T09:36:06;9.25;;;6.78;;
11394;SDS011;5753;54.402;10.220;2023-02-13T09:38:34;8.90;;;5.95;;
11394;SDS011;5753;54.402;10.220;2023-02-13T09:41:11;17.45;;;10.75;;
11394;SDS011;5753;54.402;10.220;2023-02-13T09:43:57;8.73;;;6.75;;
11394;SDS011;5753;54.402;10.220;2023-02-13T09:47:10;9.18;;;6.63;;
11394;SDS011;5753;54.402;10.220;2023-02-13T09:49:40;7.30;;;4.78;;
11394;SDS011;5753;54.402;10.220;2023-02-13T09:52:10;10.25;;;8.98;;
11394;SDS011;5753;54.402;10.220;2023-02-13T09:54:36;6.97;;;5.80;;
11394;SDS011;5753;54.402;10.220;2023-02-13T09:57:06;8.32;;;5.88;;
11394;SDS011;5753;54.402;10.220;2023-02-13T10:16:00;12.10;;;6.95;;
11394;SDS011;5753;54.402;10.220;2023-02-13T10:18:42;12.15;;;7.68;;
11394;SDS011;5753;54.402;10.220;2023-02-13T10:21:23;8.00;;;7.00;;
11394;SDS011;5753;54.402;10.220;2023-02-13T10:26:46;10.88;;;8.10;;
11394;SDS011;5753;54.402;10.220;2023-02-13T10:32:16;8.90;;;6.28;;
11394;SDS011;5753;54.402;10.220;2023-02-13T10:34:46;12.07;;;6.60;;
11394;SDS011;5753;54.402;10.220;2023-02-13T10:37:14;9.18;;;7.07;;
11394;SDS011;5753;54.402;10.220;2023-02-13T10:39:49;11.82;;;7.00;;
11394;SDS011;5753;54.402;10.220;2023-02-13T10:42:30;10.32;;;6.45;;
11394;SDS011;5753;54.402;10.220;2023-02-13T10:56:49;9.57;;;7.38;;
11394;SDS011;5753;54.402;10.220;2023-02-13T11:02:23;6.88;;;5.85;;
11394;SDS011;5753;54.402;10.220;2023-02-13T11:04:57;11.40;;;7.70;;
11394;SDS011;5753;54.402;10.220;2023-02-13T11:07:26;11.73;;;7.03;;
11394;SDS011;5753;54.402;10.220;2023-02-13T11:09:55;11.88;;;7.05;;
11394;SDS011;5753;54.402;10.220;2023-02-13T11:12:28;10.43;;;5.78;;
11394;SDS011;5753;54.402;10.220;2023-02-13T11:15:19;8.02;;;6.68;;
11394;SDS011;5753;54.402;10.220;2023-02-13T11:17:53;11.63;;;6.22;;
11394;SDS011;5753;54.402;10.220;2023-02-13T11:20:22;15.15;;;7.50;;
11394;SDS011;5753;54.402;10.220;2023-02-13T11:25:56;8.18;;;6.47;;
11394;SDS011;5753;54.402;10.220;2023-02-13T11:28:26;13.13;;;8.52;;
11394;SDS011;5753;54.402;10.220;2023-02-13T11:31:11;8.27;;;5.50;;
11394;SDS011;5753;54.402;10.220;2023-02-13T11:33:50;9.05;;;6.00;;
11394;SDS011;5753;54.402;10.220;2023-02-13T11:36:25;11.15;;;7.47;;
11394;SDS011;5753;54.402;10.220;2023-02-13T11:39:12;14.77;;;9.68;;
11394;SDS011;5753;54.402;10.220;2023-02-13T11:41:44;13.50;;;7.07;;
11394;SDS011;5753;54.402;10.220;2023-02-13T11:44:22;10.07;;;7.55;;
11394;SDS011;5753;54.402;10.220;2023-02-13T11:46:55;12.10;;;7.32;;
11394;SDS011;5753;54.402;10.220;2023-02-13T11:49:24;15.07;;;9.52;;
11394;SDS011;5753;54.402;10.220;2023-02-13T11:51:54;9.18;;;6.60;;
11394;SDS011;5753;54.402;10.220;2023-02-13T11:59:52;16.42;;;8.98;;
11394;SDS011;5753;54.402;10.220;2023-02-13T12:04:46;9.00;;;6.80;;
11394;SDS011;5753;54.402;10.220;2023-02-13T12:07:27;13.18;;;6.70;;
11394;SDS011;5753;54.402;10.220;2023-02-13T12:12:55;10.15;;;6.53;;
11394;SDS011;5753;54.402;10.220;2023-02-13T12:15:28;9.95;;;6.82;;
11394;SDS011;5753;54.402;10.220;2023-02-13T12:18:15;9.27;;;6.18;;
11394;SDS011;5753;54.402;10.220;2023-02-13T12:26:31;8.13;;;5.18;;
11394;SDS011;5753;54.402;10.220;2023-02-13T12:46:11;5.18;;;4.05;;
11394;SDS011;5753;54.402;10.220;2023-02-13T13:05:41;6.63;;;3.50;;
11394;SDS011;5753;54.402;10.220;2023-02-13T13:13:48;6.00;;;3.78;;
11394;SDS011;5753;54.402;10.220;2023-02-13T13:21:52;9.07;;;4.10;;
11394;SDS011;5753;54.402;10.220;2023-02-13T13:24:41;5.30;;;3.80;;
11394;SDS011;5753;54.402;10.220;2023-02-13T13:27:23;6.03;;;3.20;;
11394;SDS011;5753;54.402;10.220;2023-02-13T13:30:12;5.70;;;4.00;;
11394;SDS011;5753;54.402;10.220;2023-02-13T13:32:44;5.75;;;4.03;;
11394;SDS011;5753;54.402;10.220;2023-02-13T13:35:13;6.85;;;3.78;;
11394;SDS011;5753;54.402;10.220;2023-02-13T13:37:43;4.57;;;4.00;;
11394;SDS011;5753;54.402;10.220;2023-02-13T13:40:41;3.88;;;2.75;;
11394;SDS011;5753;54.402;10.220;2023-02-13T13:51:15;7.93;;;5.10;;
11394;SDS011;5753;54.402;10.220;2023-02-13T13:56:24;6.10;;;3.25;;
11394;SDS011;5753;54.402;10.220;2023-02-13T13:58:51;9.18;;;4.72;;
11394;SDS011;5753;54.402;10.220;2023-02-13T14:06:17;6.50;;;3.22;;
11394;SDS011;5753;54.402;10.220;2023-02-13T14:13:58;4.50;;;3.15;;
11394;SDS011;5753;54.402;10.220;2023-02-13T14:16:36;7.07;;;4.47;;
11394;SDS011;5753;54.402;10.220;2023-02-13T14:19:05;5.30;;;3.03;;
11394;SDS011;5753;54.402;10.220;2023-02-13T14:21:47;5.47;;;3.45;;
11394;SDS011;5753;54.402;10.220;2023-02-13T14:24:15;5.45;;;3.40;;
11394;SDS011;5753;54.402;10.220;2023-02-13T14:26:51;7.55;;;4.00;;
11394;SDS011;5753;54.402;10.220;2023-02-13T14:29:27;3.70;;;3.15;;
11394;SDS011;5753;54.402;10.220;2023-02-13T14:32:06;7.72;;;4.20;;
11394;SDS011;5753;54.402;10.220;2023-02-13T14:34:40;4.57;;;3.22;;
11394;SDS011;5753;54.402;10.220;2023-02-13T14:42:36;14.88;;;4.72;;
11394;SDS011;5753;54.402;10.220;2023-02-13T14:45:04;5.35;;;4.07;;
11394;SDS011;5753;54.402;10.220;2023-02-13T14:47:45;6.07;;;4.75;;
11394;SDS011;5753;54.402;10.220;2023-02-13T14:50:21;7.47;;;3.72;;
11394;SDS011;5753;54.402;10.220;2023-02-13T14:53:17;5.47;;;3.83;;
11394;SDS011;5753;54.402;10.220;2023-02-13T14:55:58;5.43;;;3.55;;
11394;SDS011;5753;54.402;10.220;2023-02-13T14:58:31;7.47;;;4.90;;
11394;SDS011;5753;54.402;10.220;2023-02-13T15:01:04;4.63;;;3.53;;
11394;SDS011;5753;54.402;10.220;2023-02-13T15:03:50;6.00;;;4.63;;
11394;SDS011;5753;54.402;10.220;2023-02-13T15:08:55;12.68;;;5.70;;
11394;SDS011;5753;54.402;10.220;2023-02-13T15:11:39;6.60;;;5.05;;
11394;SDS011;5753;54.402;10.220;2023-02-13T15:17:00;5.95;;;3.97;;
11394;SDS011;5753;54.402;10.220;2023-02-13T15:19:32;6.55;;;3.95;;
11394;SDS011;5753;54.402;10.220;2023-02-13T15:22:02;5.75;;;4.68;;
11394;SDS011;5753;54.402;10.220;2023-02-13T15:24:44;4.32;;;3.95;;
11394;SDS011;5753;54.402;10.220;2023-02-13T15:27:15;9.60;;;4.45;;
11394;SDS011;5753;54.402;10.220;2023-02-13T15:29:54;7.93;;;3.85;;
11394;SDS011;5753;54.402;10.220;2023-02-13T15:32:43;8.40;;;5.75;;
11394;SDS011;5753;54.402;10.220;2023-02-13T15:35:16;4.88;;;3.05;;
11394;SDS011;5753;54.402;10.220;2023-02-13T15:37:50;5.15;;;3.30;;
11394;SDS011;5753;54.402;10.220;2023-02-13T15:40:27;6.82;;;3.38;;
11394;SDS011;5753;54.402;10.220;2023-02-13T15:42:55;6.22;;;3.40;;
11394;SDS011;5753;54.402;10.220;2023-02-13T15:45:22;6.30;;;3.58;;
11394;SDS011;5753;54.402;10.220;2023-02-13T15:47:51;4.18;;;3.05;;
11394;SDS011;5753;54.402;10.220;2023-02-13T15:50:26;5.82;;;5.00;;
11394;SDS011;5753;54.402;10.220;2023-02-13T15:52:58;7.55;;;3.08;;
11394;SDS011;5753;54.402;10.220;2023-02-13T15:55:28;7.18;;;4.80;;
11394;SDS011;5753;54.402;10.220;2023-02-13T15:57:58;6.03;;;4.20;;
11394;SDS011;5753;54.402;10.220;2023-02-13T16:00:27;3.92;;;3.08;;
11394;SDS011;5753;54.402;10.220;2023-02-13T16:02:59;3.67;;;2.65;;
11394;SDS011;5753;54.402;10.220;2023-02-13T16:05:28;3.55;;;2.75;;
11394;SDS011;5753;54.402;10.220;2023-02-13T16:08:01;3.97;;;3.00;;
11394;SDS011;5753;54.402;10.220;2023-02-13T16:10:28;3.90;;;2.75;;
11394;SDS011;5753;54.402;10.220;2023-02-13T16:13:03;6.50;;;3.80;;
11394;SDS011;5753;54.402;10.220;2023-02-13T16:15:33;6.40;;;4.13;;
11394;SDS011;5753;54.402;10.220;2023-02-13T16:18:01;3.58;;;2.97;;
11394;SDS011;5753;54.402;10.220;2023-02-13T16:20:30;5.70;;;3.22;;
11394;SDS011;5753;54.402;10.220;2023-02-13T16:23:06;5.00;;;2.95;;
11394;SDS011;5753;54.402;10.220;2023-02-13T16:25:39;4.93;;;4.45;;
11394;SDS011;5753;54.402;10.220;2023-02-13T16:28:22;6.68;;;3.67;;
11394;SDS011;5753;54.402;10.220;2023-02-13T16:30:58;6.78;;;4.43;;
11394;SDS011;5753;54.402;10.220;2023-02-13T16:33:36;6.95;;;3.78;;
11394;SDS011;5753;54.402;10.220;2023-02-13T16:43:56;5.82;;;4.80;;
11394;SDS011;5753;54.402;10.220;2023-02-13T16:46:37;5.65;;;5.15;;
11394;SDS011;5753;54.402;10.220;2023-02-13T16:51:38;9.15;;;5.43;;
11394;SDS011;5753;54.402;10.220;2023-02-13T16:54:31;6.90;;;4.38;;
11394;SDS011;5753;54.402;10.220;2023-02-13T16:56:59;8.00;;;4.38;;
11394;SDS011;5753;54.402;10.220;2023-02-13T17:07:35;11.27;;;6.53;;
11394;SDS011;5753;54.402;10.220;2023-02-13T17:12:52;5.25;;;3.20;;
11394;SDS011;5753;54.402;10.220;2023-02-13T17:15:21;5.55;;;4.60;;
11394;SDS011;5753;54.402;10.220;2023-02-13T17:17:49;6.30;;;4.28;;
11394;SDS011;5753;54.402;10.220;2023-02-13T17:20:18;6.57;;;3.72;;
11394;SDS011;5753;54.402;10.220;2023-02-13T17:22:50;5.65;;;3.67;;
11394;SDS011;5753;54.402;10.220;2023-02-13T17:25:37;3.60;;;3.30;;
11394;SDS011;5753;54.402;10.220;2023-02-13T17:28:11;6.80;;;4.70;;
11394;SDS011;5753;54.402;10.220;2023-02-13T17:30:49;25.70;;;12.40;;
11394;SDS011;5753;54.402;10.220;2023-02-13T17:33:19;25.70;;;18.73;;
11394;SDS011;5753;54.402;10.220;2023-02-13T17:35:53;14.50;;;8.23;;
11394;SDS011;5753;54.402;10.220;2023-02-13T17:38:20;8.00;;;4.72;;
11394;SDS011;5753;54.402;10.220;2023-02-13T17:40:46;9.07;;;6.53;;
11394;SDS011;5753;54.402;10.220;2023-02-13T17:43:14;7.55;;;4.00;;
11394;SDS011;5753;54.402;10.220;2023-02-13T17:45:42;11.85;;;8.68;;
11394;SDS011;5753;54.402;10.220;2023-02-13T17:48:09;8.65;;;5.30;;
11394;SDS011;5753;54.402;10.220;2023-02-13T17:50:36;5.75;;;4.53;;
11394;SDS011;5753;54.402;10.220;2023-02-13T17:53:03;10.15;;;5.03;;
11394;SDS011;5753;54.402;10.220;2023-02-13T17:55:33;9.25;;;5.13;;
11394;SDS011;5753;54.402;10.220;2023-02-13T17:57:59;9.00;;;5.43;;
11394;SDS011;5753;54.402;10.220;2023-02-13T18:00:27;6.97;;;4.03;;
11394;SDS011;5753;54.402;10.220;2023-02-13T18:02:56;6.63;;;5.15;;
11394;SDS011;5753;54.402;10.220;2023-02-13T18:05:24;7.50;;;4.82;;
11394;SDS011;5753;54.402;10.220;2023-02-13T18:07:50;10.50;;;7.57;;
11394;SDS011;5753;54.402;10.220;2023-02-13T18:12:44;11.60;;;4.45;;
11394;SDS011;5753;54.402;10.220;2023-02-13T18:15:12;5.93;;;4.63;;
11394;SDS011;5753;54.402;10.220;2023-02-13T18:17:39;6.65;;;4.40;;
11394;SDS011;5753;54.402;10.220;2023-02-13T18:20:05;5.28;;;4.70;;